sensor_id;sensor_type;location;lat;lon;timestamp;P1;durP1;ratioP1;P2;durP2;ratioP2
1625;SDS011;806;48.770;9.156;2023-05-07T00:01:44;1.88;;;0.90;;
1625;SDS011;806;48.770;9.156;2023-05-07T00:04:11;1.30;;;0.90;;
1625;SDS011;806;48.770;9.156;2023-05-07T00:06:39;1.10;;;0.90;;
1625;SDS011;806;48.770;9.156;2023-05-07T00:09:06;1.30;;;0.90;;
1625;SDS011;806;48.770;9.156;2023-05-07T00:11:33;1.70;;;0.90;;
1625;SDS011;806;48.770;9.156;2023-05-07T00:14:00;1.50;;;0.90;;
1625;SDS011;806;48.770;9.156;2023-05-07T00:16:27;1.30;;;0.90;;
1625;SDS011;806;48.770;9.156;2023-05-07T00:18:54;1.60;;;0.80;;
1625;SDS011;806;48.770;9.156;2023-05-07T00:21:21;1.30;;;0.85;;
1625;SDS011;806;48.770;9.156;2023-05-07T00:23:53;1.10;;;0.90;;
1625;SDS011;806;48.770;9.156;2023-05-07T00:26:20;1.58;;;1.00;;
1625;SDS011;806;48.770;9.156;2023-05-07T00:28:47;1.70;;;0.90;;
1625;SDS011;806;48.770;9.156;2023-05-07T00:31:14;2.60;;;0.90;;
1625;SDS011;806;48.770;9.156;2023-05-07T00:33:41;1.30;;;1.00;;
1625;SDS011;806;48.770;9.156;2023-05-07T00:36:08;1.60;;;0.80;;
1625;SDS011;806;48.770;9.156;2023-05-07T00:38:35;1.20;;;0.90;;
1625;SDS011;806;48.770;9.156;2023-05-07T00:41:03;1.70;;;0.90;;
1625;SDS011;806;48.770;9.156;2023-05-07T00:43:33;1.40;;;1.00;;
1625;SDS011;806;48.770;9.156;2023-05-07T00:46:00;1.20;;;1.00;;
1625;SDS011;806;48.770;9.156;2023-05-07T00:48:28;2.13;;;1.08;;
1625;SDS011;806;48.770;9.156;2023-05-07T00:50:55;1.52;;;1.00;;
1625;SDS011;806;48.770;9.156;2023-05-07T00:53:23;1.23;;;1.00;;
1625;SDS011;806;48.770;9.156;2023-05-07T00:55:51;1.25;;;0.90;;
1625;SDS011;806;48.770;9.156;2023-05-07T00:58:20;1.38;;;1.00;;
1625;SDS011;806;48.770;9.156;2023-05-07T01:00:47;2.00;;;1.00;;
1625;SDS011;806;48.770;9.156;2023-05-07T01:03:15;1.50;;;0.90;;
1625;SDS011;806;48.770;9.156;2023-05-07T01:05:42;1.83;;;0.90;;
1625;SDS011;806;48.770;9.156;2023-05-07T01:08:10;1.80;;;0.90;;
1625;SDS011;806;48.770;9.156;2023-05-07T01:10:37;1.10;;;0.90;;
1625;SDS011;806;48.770;9.156;2023-05-07T01:13:07;2.15;;;1.00;;
1625;SDS011;806;48.770;9.156;2023-05-07T01:15:36;2.70;;;1.00;;
1625;SDS011;806;48.770;9.156;2023-05-07T01:18:05;2.25;;;1.00;;
1625;SDS011;806;48.770;9.156;2023-05-07T01:20:33;1.30;;;1.00;;
1625;SDS011;806;48.770;9.156;2023-05-07T01:23:02;1.60;;;0.90;;
1625;SDS011;806;48.770;9.156;2023-05-07T01:25:30;1.70;;;1.00;;
1625;SDS011;806;48.770;9.156;2023-05-07T01:27:57;1.50;;;1.00;;
1625;SDS011;806;48.770;9.156;2023-05-07T01:30:26;1.27;;;0.90;;
1625;SDS011;806;48.770;9.156;2023-05-07T01:32:56;1.50;;;0.98;;
1625;SDS011;806;48.770;9.156;2023-05-07T01:35:26;1.80;;;0.80;;
1625;SDS011;806;48.770;9.156;2023-05-07T01:37:55;1.40;;;1.00;;
1625;SDS011;806;48.770;9.156;2023-05-07T01:40:24;1.20;;;0.80;;
1625;SDS011;806;48.770;9.156;2023-05-07T01:42:53;1.15;;;0.90;;
1625;SDS011;806;48.770;9.156;2023-05-07T01:45:21;1.33;;;0.90;;
1625;SDS011;806;48.770;9.156;2023-05-07T01:47:48;1.45;;;0.90;;
1625;SDS011;806;48.770;9.156;2023-05-07T01:50:16;1.50;;;0.90;;
1625;SDS011;806;48.770;9.156;2023-05-07T01:52:44;1.30;;;1.00;;
1625;SDS011;806;48.770;9.156;2023-05-07T01:55:12;1.50;;;1.00;;
1625;SDS011;806;48.770;9.156;2023-05-07T01:57:40;1.40;;;1.00;;
1625;SDS011;806;48.770;9.156;2023-05-07T02:00:08;1.40;;;0.93;;
1625;SDS011;806;48.770;9.156;2023-05-07T02:02:35;2.00;;;1.00;;
1625;SDS011;806;48.770;9.156;2023-05-07T02:05:03;1.90;;;1.10;;
1625;SDS011;806;48.770;9.156;2023-05-07T02:07:31;2.65;;;1.00;;
1625;SDS011;806;48.770;9.156;2023-05-07T02:09:58;1.92;;;1.10;;
1625;SDS011;806;48.770;9.156;2023-05-07T02:12:25;1.60;;;1.00;;
1625;SDS011;806;48.770;9.156;2023-05-07T02:14:53;1.90;;;0.90;;
1625;SDS011;806;48.770;9.156;2023-05-07T02:17:20;1.25;;;0.90;;
1625;SDS011;806;48.770;9.156;2023-05-07T02:19:47;1.35;;;1.00;;
1625;SDS011;806;48.770;9.156;2023-05-07T02:22:15;2.80;;;0.90;;
1625;SDS011;806;48.770;9.156;2023-05-07T02:24:42;1.90;;;1.10;;
1625;SDS011;806;48.770;9.156;2023-05-07T02:27:09;1.48;;;1.00;;
1625;SDS011;806;48.770;9.156;2023-05-07T02:29:36;1.35;;;0.90;;
1625;SDS011;806;48.770;9.156;2023-05-07T02:32:05;1.40;;;1.00;;
1625;SDS011;806;48.770;9.156;2023-05-07T02:34:32;2.07;;;1.10;;
1625;SDS011;806;48.770;9.156;2023-05-07T02:36:59;1.40;;;1.10;;
1625;SDS011;806;48.770;9.156;2023-05-07T02:39:26;2.40;;;1.10;;
1625;SDS011;806;48.770;9.156;2023-05-07T02:41:53;2.40;;;0.90;;
1625;SDS011;806;48.770;9.156;2023-05-07T02:44:20;1.27;;;0.80;;
1625;SDS011;806;48.770;9.156;2023-05-07T02:46:47;1.73;;;0.90;;
1625;SDS011;806;48.770;9.156;2023-05-07T02:49:16;1.33;;;0.90;;
1625;SDS011;806;48.770;9.156;2023-05-07T02:51:43;1.90;;;1.00;;
1625;SDS011;806;48.770;9.156;2023-05-07T02:54:10;1.70;;;0.90;;
1625;SDS011;806;48.770;9.156;2023-05-07T02:56:37;1.60;;;0.90;;
1625;SDS011;806;48.770;9.156;2023-05-07T02:59:04;1.60;;;1.10;;
1625;SDS011;806;48.770;9.156;2023-05-07T03:01:31;1.92;;;1.00;;
1625;SDS011;806;48.770;9.156;2023-05-07T03:03:58;1.40;;;1.10;;
1625;SDS011;806;48.770;9.156;2023-05-07T03:06:27;1.60;;;1.00;;
1625;SDS011;806;48.770;9.156;2023-05-07T03:08:54;1.23;;;0.90;;
1625;SDS011;806;48.770;9.156;2023-05-07T03:11:21;2.10;;;1.00;;
1625;SDS011;806;48.770;9.156;2023-05-07T03:13:48;2.00;;;0.90;;
1625;SDS011;806;48.770;9.156;2023-05-07T03:16:15;1.02;;;0.90;;
1625;SDS011;806;48.770;9.156;2023-05-07T03:18:42;2.10;;;1.00;;
1625;SDS011;806;48.770;9.156;2023-05-07T03:21:09;2.10;;;1.00;;
1625;SDS011;806;48.770;9.156;2023-05-07T03:23:38;2.13;;;1.00;;
1625;SDS011;806;48.770;9.156;2023-05-07T03:26:05;1.20;;;1.00;;
1625;SDS011;806;48.770;9.156;2023-05-07T03:28:32;1.90;;;1.00;;
1625;SDS011;806;48.770;9.156;2023-05-07T03:30:59;1.13;;;0.90;;
1625;SDS011;806;48.770;9.156;2023-05-07T03:33:26;1.08;;;0.85;;
1625;SDS011;806;48.770;9.156;2023-05-07T03:35:53;2.30;;;1.00;;
1625;SDS011;806;48.770;9.156;2023-05-07T03:38:20;1.50;;;1.00;;
1625;SDS011;806;48.770;9.156;2023-05-07T03:40:48;2.17;;;1.17;;
1625;SDS011;806;48.770;9.156;2023-05-07T03:43:16;1.30;;;1.00;;
1625;SDS011;806;48.770;9.156;2023-05-07T03:45:43;1.10;;;0.90;;
1625;SDS011;806;48.770;9.156;2023-05-07T03:48:12;1.70;;;1.00;;
1625;SDS011;806;48.770;9.156;2023-05-07T03:50:39;1.80;;;1.00;;
1625;SDS011;806;48.770;9.156;2023-05-07T03:53:06;1.20;;;0.90;;
1625;SDS011;806;48.770;9.156;2023-05-07T03:55:39;1.35;;;1.00;;
1625;SDS011;806;48.770;9.156;2023-05-07T03:58:08;2.20;;;0.90;;
1625;SDS011;806;48.770;9.156;2023-05-07T04:00:35;1.70;;;0.93;;
1625;SDS011;806;48.770;9.156;2023-05-07T04:03:03;2.65;;;1.00;;
1625;SDS011;806;48.770;9.156;2023-05-07T04:05:30;1.90;;;0.90;;
1625;SDS011;806;48.770;9.156;2023-05-07T04:07:57;1.80;;;0.98;;
1625;SDS011;806;48.770;9.156;2023-05-07T04:10:25;1.40;;;0.90;;
1625;SDS011;806;48.770;9.156;2023-05-07T04:12:53;1.70;;;0.90;;
1625;SDS011;806;48.770;9.156;2023-05-07T04:15:22;1.20;;;0.90;;
1625;SDS011;806;48.770;9.156;2023-05-07T04:17:50;1.27;;;1.00;;
1625;SDS011;806;48.770;9.156;2023-05-07T04:20:17;1.23;;;0.90;;
1625;SDS011;806;48.770;9.156;2023-05-07T04:22:44;1.40;;;0.90;;
1625;SDS011;806;48.770;9.156;2023-05-07T04:25:11;1.23;;;0.90;;
1625;SDS011;806;48.770;9.156;2023-05-07T04:27:38;1.90;;;0.80;;
1625;SDS011;806;48.770;9.156;2023-05-07T04:30:06;1.40;;;0.90;;
1625;SDS011;806;48.770;9.156;2023-05-07T04:32:35;1.45;;;0.90;;
1625;SDS011;806;48.770;9.156;2023-05-07T04:35:03;2.40;;;0.80;;
1625;SDS011;806;48.770;9.156;2023-05-07T04:37:31;1.10;;;0.80;;
1625;SDS011;806;48.770;9.156;2023-05-07T04:39:58;1.20;;;0.90;;
1625;SDS011;806;48.770;9.156;2023-05-07T04:42:25;1.10;;;0.90;;
1625;SDS011;806;48.770;9.156;2023-05-07T04:44:53;1.80;;;0.80;;
1625;SDS011;806;48.770;9.156;2023-05-07T04:47:20;2.40;;;0.80;;
1625;SDS011;806;48.770;9.156;2023-05-07T04:49:48;1.60;;;0.90;;
1625;SDS011;806;48.770;9.156;2023-05-07T04:52:15;1.40;;;0.88;;
1625;SDS011;806;48.770;9.156;2023-05-07T04:54:42;1.60;;;1.00;;
1625;SDS011;806;48.770;9.156;2023-05-07T04:57:10;1.90;;;0.90;;
1625;SDS011;806;48.770;9.156;2023-05-07T04:59:37;1.95;;;1.00;;
1625;SDS011;806;48.770;9.156;2023-05-07T05:02:04;1.10;;;0.80;;
1625;SDS011;806;48.770;9.156;2023-05-07T05:04:31;1.60;;;0.90;;
1625;SDS011;806;48.770;9.156;2023-05-07T05:06:59;1.10;;;0.90;;
1625;SDS011;806;48.770;9.156;2023-05-07T05:09:27;1.10;;;0.90;;
1625;SDS011;806;48.770;9.156;2023-05-07T05:11:54;1.50;;;1.02;;
1625;SDS011;806;48.770;9.156;2023-05-07T05:14:21;1.50;;;0.80;;
1625;SDS011;806;48.770;9.156;2023-05-07T05:16:48;1.70;;;0.90;;
1625;SDS011;806;48.770;9.156;2023-05-07T05:19:15;1.73;;;0.90;;
1625;SDS011;806;48.770;9.156;2023-05-07T05:21:42;1.65;;;1.00;;
1625;SDS011;806;48.770;9.156;2023-05-07T05:24:11;1.00;;;0.80;;
1625;SDS011;806;48.770;9.156;2023-05-07T05:26:38;1.90;;;1.00;;
1625;SDS011;806;48.770;9.156;2023-05-07T05:29:05;1.40;;;1.10;;
1625;SDS011;806;48.770;9.156;2023-05-07T05:31:32;1.50;;;1.00;;
1625;SDS011;806;48.770;9.156;2023-05-07T05:34:00;1.23;;;0.90;;
1625;SDS011;806;48.770;9.156;2023-05-07T05:36:31;1.73;;;1.10;;
1625;SDS011;806;48.770;9.156;2023-05-07T05:38:58;1.70;;;0.90;;
1625;SDS011;806;48.770;9.156;2023-05-07T05:41:27;3.20;;;1.00;;
1625;SDS011;806;48.770;9.156;2023-05-07T05:43:54;1.40;;;0.98;;
1625;SDS011;806;48.770;9.156;2023-05-07T05:46:21;1.40;;;1.05;;
1625;SDS011;806;48.770;9.156;2023-05-07T05:48:48;1.70;;;0.90;;
1625;SDS011;806;48.770;9.156;2023-05-07T05:51:15;1.80;;;1.00;;
1625;SDS011;806;48.770;9.156;2023-05-07T05:53:42;1.65;;;0.98;;
1625;SDS011;806;48.770;9.156;2023-05-07T05:56:09;1.50;;;0.90;;
1625;SDS011;806;48.770;9.156;2023-05-07T05:58:37;1.50;;;1.00;;
1625;SDS011;806;48.770;9.156;2023-05-07T06:01:04;1.30;;;1.00;;
1625;SDS011;806;48.770;9.156;2023-05-07T06:03:31;1.30;;;1.00;;
1625;SDS011;806;48.770;9.156;2023-05-07T06:05:59;1.73;;;1.10;;
1625;SDS011;806;48.770;9.156;2023-05-07T06:08:28;1.60;;;1.20;;
1625;SDS011;806;48.770;9.156;2023-05-07T06:10:55;3.00;;;1.20;;
1625;SDS011;806;48.770;9.156;2023-05-07T06:13:23;3.00;;;1.00;;
1625;SDS011;806;48.770;9.156;2023-05-07T06:15:51;2.10;;;1.20;;
1625;SDS011;806;48.770;9.156;2023-05-07T06:18:18;1.40;;;1.30;;
1625;SDS011;806;48.770;9.156;2023-05-07T06:20:45;2.40;;;1.30;;
1625;SDS011;806;48.770;9.156;2023-05-07T06:23:13;1.40;;;1.10;;
1625;SDS011;806;48.770;9.156;2023-05-07T06:25:40;1.50;;;1.10;;
1625;SDS011;806;48.770;9.156;2023-05-07T06:28:07;1.60;;;1.10;;
1625;SDS011;806;48.770;9.156;2023-05-07T06:30:36;1.55;;;1.10;;
1625;SDS011;806;48.770;9.156;2023-05-07T06:33:04;1.40;;;1.00;;
1625;SDS011;806;48.770;9.156;2023-05-07T06:35:31;1.30;;;1.02;;
1625;SDS011;806;48.770;9.156;2023-05-07T06:37:59;1.98;;;1.00;;
1625;SDS011;806;48.770;9.156;2023-05-07T06:40:26;1.50;;;1.10;;
1625;SDS011;806;48.770;9.156;2023-05-07T06:42:54;1.40;;;1.20;;
1625;SDS011;806;48.770;9.156;2023-05-07T06:45:21;1.70;;;1.30;;
1625;SDS011;806;48.770;9.156;2023-05-07T06:47:48;1.43;;;1.10;;
1625;SDS011;806;48.770;9.156;2023-05-07T06:50:17;2.05;;;1.00;;
1625;SDS011;806;48.770;9.156;2023-05-07T06:52:44;2.10;;;1.10;;
1625;SDS011;806;48.770;9.156;2023-05-07T06:55:11;1.90;;;1.20;;
1625;SDS011;806;48.770;9.156;2023-05-07T06:57:38;1.70;;;1.20;;
1625;SDS011;806;48.770;9.156;2023-05-07T07:00:05;1.57;;;1.10;;
1625;SDS011;806;48.770;9.156;2023-05-07T07:02:34;1.73;;;1.30;;
1625;SDS011;806;48.770;9.156;2023-05-07T07:05:01;1.80;;;1.20;;
1625;SDS011;806;48.770;9.156;2023-05-07T07:07:29;1.50;;;1.10;;
1625;SDS011;806;48.770;9.156;2023-05-07T07:09:56;2.00;;;1.10;;
1625;SDS011;806;48.770;9.156;2023-05-07T07:12:23;1.75;;;1.15;;
1625;SDS011;806;48.770;9.156;2023-05-07T07:14:51;1.90;;;1.30;;
1625;SDS011;806;48.770;9.156;2023-05-07T07:17:18;2.10;;;1.20;;
1625;SDS011;806;48.770;9.156;2023-05-07T07:19:45;2.53;;;1.20;;
1625;SDS011;806;48.770;9.156;2023-05-07T07:22:12;1.60;;;1.10;;
1625;SDS011;806;48.770;9.156;2023-05-07T07:24:40;3.30;;;1.20;;
1625;SDS011;806;48.770;9.156;2023-05-07T07:27:07;2.60;;;1.20;;
1625;SDS011;806;48.770;9.156;2023-05-07T07:29:34;1.90;;;1.20;;
1625;SDS011;806;48.770;9.156;2023-05-07T07:32:01;2.67;;;1.10;;
1625;SDS011;806;48.770;9.156;2023-05-07T07:34:28;2.37;;;1.00;;
1625;SDS011;806;48.770;9.156;2023-05-07T07:36:55;1.40;;;1.05;;
1625;SDS011;806;48.770;9.156;2023-05-07T07:39:22;1.30;;;1.00;;
1625;SDS011;806;48.770;9.156;2023-05-07T07:41:51;1.40;;;1.00;;
1625;SDS011;806;48.770;9.156;2023-05-07T07:44:18;1.40;;;1.10;;
1625;SDS011;806;48.770;9.156;2023-05-07T07:46:45;1.60;;;1.10;;
1625;SDS011;806;48.770;9.156;2023-05-07T07:49:12;1.40;;;1.10;;
1625;SDS011;806;48.770;9.156;2023-05-07T07:51:40;1.40;;;1.10;;
1625;SDS011;806;48.770;9.156;2023-05-07T07:54:07;2.35;;;1.00;;
1625;SDS011;806;48.770;9.156;2023-05-07T07:56:34;1.50;;;1.00;;
1625;SDS011;806;48.770;9.156;2023-05-07T07:59:02;1.60;;;1.00;;
1625;SDS011;806;48.770;9.156;2023-05-07T08:01:30;1.40;;;1.05;;
1625;SDS011;806;48.770;9.156;2023-05-07T08:03:57;1.42;;;0.95;;
1625;SDS011;806;48.770;9.156;2023-05-07T08:06:24;1.30;;;1.00;;
1625;SDS011;806;48.770;9.156;2023-05-07T08:08:52;2.30;;;1.10;;
1625;SDS011;806;48.770;9.156;2023-05-07T08:11:19;2.65;;;0.95;;
1625;SDS011;806;48.770;9.156;2023-05-07T08:13:46;1.20;;;1.00;;
1625;SDS011;806;48.770;9.156;2023-05-07T08:16:16;1.20;;;0.95;;
1625;SDS011;806;48.770;9.156;2023-05-07T08:18:43;1.10;;;0.95;;
1625;SDS011;806;48.770;9.156;2023-05-07T08:21:10;1.20;;;1.00;;
1625;SDS011;806;48.770;9.156;2023-05-07T08:23:37;1.10;;;0.90;;
1625;SDS011;806;48.770;9.156;2023-05-07T08:26:04;1.20;;;0.80;;
1625;SDS011;806;48.770;9.156;2023-05-07T08:28:31;1.30;;;1.00;;
1625;SDS011;806;48.770;9.156;2023-05-07T08:30:58;2.57;;;1.00;;
1625;SDS011;806;48.770;9.156;2023-05-07T08:33:27;1.65;;;1.00;;
1625;SDS011;806;48.770;9.156;2023-05-07T08:35:54;1.30;;;0.90;;
1625;SDS011;806;48.770;9.156;2023-05-07T08:38:21;1.27;;;0.90;;
1625;SDS011;806;48.770;9.156;2023-05-07T08:40:48;1.20;;;0.75;;
1625;SDS011;806;48.770;9.156;2023-05-07T08:43:16;1.35;;;0.80;;
1625;SDS011;806;48.770;9.156;2023-05-07T08:45:45;2.10;;;0.70;;
1625;SDS011;806;48.770;9.156;2023-05-07T08:48:14;0.90;;;0.70;;
1625;SDS011;806;48.770;9.156;2023-05-07T08:50:43;1.15;;;0.80;;
1625;SDS011;806;48.770;9.156;2023-05-07T08:53:10;1.60;;;0.80;;
1625;SDS011;806;48.770;9.156;2023-05-07T08:55:38;1.00;;;0.80;;
1625;SDS011;806;48.770;9.156;2023-05-07T08:58:06;1.00;;;0.70;;
1625;SDS011;806;48.770;9.156;2023-05-07T09:00:33;0.95;;;0.80;;
1625;SDS011;806;48.770;9.156;2023-05-07T09:03:02;1.40;;;0.80;;
1625;SDS011;806;48.770;9.156;2023-05-07T09:05:29;1.20;;;0.70;;
1625;SDS011;806;48.770;9.156;2023-05-07T09:08:00;0.93;;;0.80;;
1625;SDS011;806;48.770;9.156;2023-05-07T09:10:29;0.90;;;0.70;;
1625;SDS011;806;48.770;9.156;2023-05-07T09:12:56;1.00;;;0.70;;
1625;SDS011;806;48.770;9.156;2023-05-07T09:15:23;0.90;;;0.70;;
1625;SDS011;806;48.770;9.156;2023-05-07T09:17:50;1.40;;;0.60;;
1625;SDS011;806;48.770;9.156;2023-05-07T09:20:17;0.90;;;0.70;;
1625;SDS011;806;48.770;9.156;2023-05-07T09:22:44;1.30;;;0.65;;
1625;SDS011;806;48.770;9.156;2023-05-07T09:25:13;0.90;;;0.70;;
1625;SDS011;806;48.770;9.156;2023-05-07T09:27:41;0.90;;;0.60;;
1625;SDS011;806;48.770;9.156;2023-05-07T09:30:08;0.90;;;0.60;;
1625;SDS011;806;48.770;9.156;2023-05-07T09:32:36;1.00;;;0.60;;
1625;SDS011;806;48.770;9.156;2023-05-07T09:35:04;0.80;;;0.60;;
1625;SDS011;806;48.770;9.156;2023-05-07T09:37:32;1.35;;;0.60;;
1625;SDS011;806;48.770;9.156;2023-05-07T09:39:59;0.80;;;0.60;;
1625;SDS011;806;48.770;9.156;2023-05-07T09:42:28;0.70;;;0.60;;
1625;SDS011;806;48.770;9.156;2023-05-07T09:44:55;2.20;;;0.70;;
1625;SDS011;806;48.770;9.156;2023-05-07T09:47:23;0.90;;;0.60;;
1625;SDS011;806;48.770;9.156;2023-05-07T09:49:52;1.10;;;0.80;;
1625;SDS011;806;48.770;9.156;2023-05-07T09:52:23;1.50;;;0.70;;
1625;SDS011;806;48.770;9.156;2023-05-07T09:54:53;0.77;;;0.60;;
1625;SDS011;806;48.770;9.156;2023-05-07T09:57:24;0.70;;;0.50;;
1625;SDS011;806;48.770;9.156;2023-05-07T09:59:54;0.70;;;0.60;;
1625;SDS011;806;48.770;9.156;2023-05-07T10:02:24;0.80;;;0.60;;
1625;SDS011;806;48.770;9.156;2023-05-07T10:04:57;0.90;;;0.60;;
1625;SDS011;806;48.770;9.156;2023-05-07T10:07:25;0.85;;;0.60;;
1625;SDS011;806;48.770;9.156;2023-05-07T10:09:53;0.80;;;0.70;;
1625;SDS011;806;48.770;9.156;2023-05-07T10:12:21;0.70;;;0.60;;
1625;SDS011;806;48.770;9.156;2023-05-07T10:14:50;1.00;;;0.60;;
1625;SDS011;806;48.770;9.156;2023-05-07T10:17:22;0.70;;;0.60;;
1625;SDS011;806;48.770;9.156;2023-05-07T10:19:50;0.80;;;0.60;;
1625;SDS011;806;48.770;9.156;2023-05-07T10:22:19;0.82;;;0.60;;
1625;SDS011;806;48.770;9.156;2023-05-07T10:24:47;0.90;;;0.60;;
1625;SDS011;806;48.770;9.156;2023-05-07T10:27:19;1.20;;;0.60;;
1625;SDS011;806;48.770;9.156;2023-05-07T10:29:49;0.80;;;0.70;;
1625;SDS011;806;48.770;9.156;2023-05-07T10:32:35;0.90;;;0.60;;
1625;SDS011;806;48.770;9.156;2023-05-07T10:35:06;1.20;;;0.60;;
1625;SDS011;806;48.770;9.156;2023-05-07T10:37:37;1.80;;;0.70;;
1625;SDS011;806;48.770;9.156;2023-05-07T10:40:05;0.60;;;0.50;;
1625;SDS011;806;48.770;9.156;2023-05-07T10:42:33;0.80;;;0.60;;
1625;SDS011;806;48.770;9.156;2023-05-07T10:45:12;0.80;;;0.60;;
1625;SDS011;806;48.770;9.156;2023-05-07T10:50:33;0.80;;;0.50;;
1625;SDS011;806;48.770;9.156;2023-05-07T10:58:54;0.82;;;0.70;;
1625;SDS011;806;48.770;9.156;2023-05-07T11:04:17;0.88;;;0.60;;
1625;SDS011;806;48.770;9.156;2023-05-07T11:09:57;0.90;;;0.70;;
1625;SDS011;806;48.770;9.156;2023-05-07T11:15:39;0.90;;;0.70;;
1625;SDS011;806;48.770;9.156;2023-05-07T11:18:10;0.88;;;0.68;;
1625;SDS011;806;48.770;9.156;2023-05-07T11:20:46;1.20;;;0.60;;
1625;SDS011;806;48.770;9.156;2023-05-07T11:26:21;0.90;;;0.70;;
1625;SDS011;806;48.770;9.156;2023-05-07T11:28:48;0.80;;;0.65;;
1625;SDS011;806;48.770;9.156;2023-05-07T11:31:17;0.70;;;0.60;;
1625;SDS011;806;48.770;9.156;2023-05-07T11:33:49;1.17;;;0.70;;
1625;SDS011;806;48.770;9.156;2023-05-07T11:36:16;1.55;;;0.85;;
1625;SDS011;806;48.770;9.156;2023-05-07T11:38:46;1.60;;;0.70;;
1625;SDS011;806;48.770;9.156;2023-05-07T11:41:13;1.80;;;0.50;;
1625;SDS011;806;48.770;9.156;2023-05-07T11:43:53;0.80;;;0.60;;
1625;SDS011;806;48.770;9.156;2023-05-07T11:46:24;0.98;;;0.60;;
1625;SDS011;806;48.770;9.156;2023-05-07T11:48:53;1.40;;;0.60;;
1625;SDS011;806;48.770;9.156;2023-05-07T11:51:20;0.90;;;0.70;;
1625;SDS011;806;48.770;9.156;2023-05-07T11:53:48;0.87;;;0.70;;
1625;SDS011;806;48.770;9.156;2023-05-07T11:56:16;1.63;;;0.60;;
1625;SDS011;806;48.770;9.156;2023-05-07T11:58:45;0.80;;;0.60;;
1625;SDS011;806;48.770;9.156;2023-05-07T12:01:13;1.00;;;0.70;;
1625;SDS011;806;48.770;9.156;2023-05-07T12:03:41;0.90;;;0.70;;
1625;SDS011;806;48.770;9.156;2023-05-07T12:06:12;0.88;;;0.70;;
1625;SDS011;806;48.770;9.156;2023-05-07T12:08:40;1.00;;;0.70;;
1625;SDS011;806;48.770;9.156;2023-05-07T12:11:09;2.60;;;0.90;;
1625;SDS011;806;48.770;9.156;2023-05-07T12:13:38;3.13;;;1.00;;
1625;SDS011;806;48.770;9.156;2023-05-07T12:16:07;0.90;;;0.60;;
1625;SDS011;806;48.770;9.156;2023-05-07T12:18:34;1.65;;;0.60;;
1625;SDS011;806;48.770;9.156;2023-05-07T12:21:04;0.90;;;0.45;;
1625;SDS011;806;48.770;9.156;2023-05-07T12:23:34;0.93;;;0.53;;
1625;SDS011;806;48.770;9.156;2023-05-07T12:26:02;1.30;;;0.80;;
1625;SDS011;806;48.770;9.156;2023-05-07T12:28:29;1.40;;;0.90;;
1625;SDS011;806;48.770;9.156;2023-05-07T12:30:57;3.50;;;1.10;;
1625;SDS011;806;48.770;9.156;2023-05-07T12:33:25;1.00;;;0.75;;
1625;SDS011;806;48.770;9.156;2023-05-07T12:35:54;4.10;;;1.10;;
1625;SDS011;806;48.770;9.156;2023-05-07T12:38:22;1.50;;;0.80;;
1625;SDS011;806;48.770;9.156;2023-05-07T12:40:53;1.30;;;0.90;;
1625;SDS011;806;48.770;9.156;2023-05-07T12:43:21;3.35;;;1.02;;
1625;SDS011;806;48.770;9.156;2023-05-07T12:45:50;4.50;;;2.10;;
1625;SDS011;806;48.770;9.156;2023-05-07T12:48:19;2.30;;;0.90;;
1625;SDS011;806;48.770;9.156;2023-05-07T12:50:49;1.80;;;0.82;;
1625;SDS011;806;48.770;9.156;2023-05-07T12:53:16;1.70;;;0.70;;
1625;SDS011;806;48.770;9.156;2023-05-07T12:55:46;2.10;;;0.90;;
1625;SDS011;806;48.770;9.156;2023-05-07T12:58:17;3.10;;;1.00;;
1625;SDS011;806;48.770;9.156;2023-05-07T13:00:47;2.05;;;0.80;;
1625;SDS011;806;48.770;9.156;2023-05-07T13:03:22;1.25;;;0.60;;
1625;SDS011;806;48.770;9.156;2023-05-07T13:05:51;2.20;;;0.60;;
1625;SDS011;806;48.770;9.156;2023-05-07T13:08:23;1.70;;;0.60;;
1625;SDS011;806;48.770;9.156;2023-05-07T13:10:51;1.40;;;0.70;;
1625;SDS011;806;48.770;9.156;2023-05-07T13:13:19;1.33;;;0.60;;
1625;SDS011;806;48.770;9.156;2023-05-07T13:15:46;0.88;;;0.60;;
1625;SDS011;806;48.770;9.156;2023-05-07T13:18:14;0.80;;;0.60;;
1625;SDS011;806;48.770;9.156;2023-05-07T13:20:41;1.70;;;0.60;;
1625;SDS011;806;48.770;9.156;2023-05-07T13:23:08;1.45;;;0.50;;
1625;SDS011;806;48.770;9.156;2023-05-07T13:25:35;1.10;;;0.50;;
1625;SDS011;806;48.770;9.156;2023-05-07T13:28:02;1.60;;;0.50;;
1625;SDS011;806;48.770;9.156;2023-05-07T13:30:31;1.08;;;0.50;;
1625;SDS011;806;48.770;9.156;2023-05-07T13:32:58;1.55;;;0.60;;
1625;SDS011;806;48.770;9.156;2023-05-07T13:35:25;1.80;;;0.50;;
1625;SDS011;806;48.770;9.156;2023-05-07T13:37:52;0.77;;;0.50;;
1625;SDS011;806;48.770;9.156;2023-05-07T13:40:20;1.90;;;0.60;;
1625;SDS011;806;48.770;9.156;2023-05-07T13:42:47;1.00;;;0.47;;
1625;SDS011;806;48.770;9.156;2023-05-07T13:45:14;0.80;;;0.50;;
1625;SDS011;806;48.770;9.156;2023-05-07T13:47:42;1.58;;;0.50;;
1625;SDS011;806;48.770;9.156;2023-05-07T13:50:10;1.30;;;0.55;;
1625;SDS011;806;48.770;9.156;2023-05-07T13:52:39;3.00;;;0.60;;
1625;SDS011;806;48.770;9.156;2023-05-07T13:55:08;1.30;;;0.50;;
1625;SDS011;806;48.770;9.156;2023-05-07T13:57:36;0.70;;;0.50;;
1625;SDS011;806;48.770;9.156;2023-05-07T14:00:03;1.10;;;0.60;;
1625;SDS011;806;48.770;9.156;2023-05-07T14:02:31;1.90;;;0.70;;
1625;SDS011;806;48.770;9.156;2023-05-07T14:05:00;1.92;;;0.50;;
1625;SDS011;806;48.770;9.156;2023-05-07T14:07:27;0.70;;;0.40;;
1625;SDS011;806;48.770;9.156;2023-05-07T14:09:54;1.40;;;0.40;;
1625;SDS011;806;48.770;9.156;2023-05-07T14:12:21;1.30;;;0.50;;
1625;SDS011;806;48.770;9.156;2023-05-07T14:14:48;1.80;;;0.50;;
1625;SDS011;806;48.770;9.156;2023-05-07T14:17:16;0.70;;;0.50;;
1625;SDS011;806;48.770;9.156;2023-05-07T14:19:43;1.15;;;0.60;;
1625;SDS011;806;48.770;9.156;2023-05-07T14:22:12;1.10;;;0.60;;
1625;SDS011;806;48.770;9.156;2023-05-07T14:24:40;1.50;;;0.60;;
1625;SDS011;806;48.770;9.156;2023-05-07T14:27:07;1.00;;;0.70;;
1625;SDS011;806;48.770;9.156;2023-05-07T14:29:35;1.20;;;0.80;;
1625;SDS011;806;48.770;9.156;2023-05-07T14:32:02;2.10;;;0.90;;
1625;SDS011;806;48.770;9.156;2023-05-07T14:34:29;2.20;;;0.90;;
1625;SDS011;806;48.770;9.156;2023-05-07T14:36:57;2.20;;;0.77;;
1625;SDS011;806;48.770;9.156;2023-05-07T14:39:26;2.90;;;0.80;;
1625;SDS011;806;48.770;9.156;2023-05-07T14:41:53;2.60;;;0.80;;
1625;SDS011;806;48.770;9.156;2023-05-07T14:44:21;1.00;;;0.70;;
1625;SDS011;806;48.770;9.156;2023-05-07T14:46:48;1.00;;;0.63;;
1625;SDS011;806;48.770;9.156;2023-05-07T14:49:15;1.30;;;0.70;;
1625;SDS011;806;48.770;9.156;2023-05-07T14:51:43;1.40;;;0.70;;
1625;SDS011;806;48.770;9.156;2023-05-07T14:54:11;1.20;;;0.90;;
1625;SDS011;806;48.770;9.156;2023-05-07T14:56:39;1.90;;;0.70;;
1625;SDS011;806;48.770;9.156;2023-05-07T14:59:07;5.80;;;0.70;;
1625;SDS011;806;48.770;9.156;2023-05-07T15:01:34;4.30;;;2.80;;
1625;SDS011;806;48.770;9.156;2023-05-07T15:04:02;2.78;;;1.10;;
1625;SDS011;806;48.770;9.156;2023-05-07T15:06:29;1.70;;;1.00;;
1625;SDS011;806;48.770;9.156;2023-05-07T15:08:57;1.30;;;0.90;;
1625;SDS011;806;48.770;9.156;2023-05-07T15:11:24;1.60;;;1.00;;
1625;SDS011;806;48.770;9.156;2023-05-07T15:13:52;0.80;;;0.60;;
1625;SDS011;806;48.770;9.156;2023-05-07T15:16:19;1.08;;;0.50;;
1625;SDS011;806;48.770;9.156;2023-05-07T15:18:46;0.70;;;0.50;;
1625;SDS011;806;48.770;9.156;2023-05-07T15:21:13;0.90;;;0.57;;
1625;SDS011;806;48.770;9.156;2023-05-07T15:23:40;0.80;;;0.53;;
1625;SDS011;806;48.770;9.156;2023-05-07T15:26:09;1.20;;;0.50;;
1625;SDS011;806;48.770;9.156;2023-05-07T15:28:36;1.10;;;0.50;;
1625;SDS011;806;48.770;9.156;2023-05-07T15:31:05;1.10;;;0.50;;
1625;SDS011;806;48.770;9.156;2023-05-07T15:33:34;1.33;;;0.60;;
1625;SDS011;806;48.770;9.156;2023-05-07T15:36:01;0.70;;;0.60;;
1625;SDS011;806;48.770;9.156;2023-05-07T15:38:28;0.80;;;0.50;;
1625;SDS011;806;48.770;9.156;2023-05-07T15:40:56;0.80;;;0.60;;
1625;SDS011;806;48.770;9.156;2023-05-07T15:43:23;0.70;;;0.60;;
1625;SDS011;806;48.770;9.156;2023-05-07T15:45:50;0.70;;;0.50;;
1625;SDS011;806;48.770;9.156;2023-05-07T15:48:19;0.70;;;0.50;;
1625;SDS011;806;48.770;9.156;2023-05-07T15:50:46;0.70;;;0.50;;
1625;SDS011;806;48.770;9.156;2023-05-07T15:53:13;1.50;;;0.60;;
1625;SDS011;806;48.770;9.156;2023-05-07T15:55:41;1.10;;;0.50;;